sensor_id;sensor_type;location;lat;lon;timestamp;P1;durP1;ratioP1;P2;durP2;ratioP2
48205;SDS011;33995;48.202;16.260;2024-03-06T00:01:12;22.93;;;18.23;;
48205;SDS011;33995;48.202;16.260;2024-03-06T00:03:40;23.53;;;17.77;;
48205;SDS011;33995;48.202;16.260;2024-03-06T00:06:07;21.53;;;18.00;;
48205;SDS011;33995;48.202;16.260;2024-03-06T00:08:34;23.27;;;18.70;;
48205;SDS011;33995;48.202;16.260;2024-03-06T00:11:03;22.30;;;17.90;;
48205;SDS011;33995;48.202;16.260;2024-03-06T00:13:31;22.07;;;17.90;;
48205;SDS011;33995;48.202;16.260;2024-03-06T00:15:58;22.93;;;19.03;;
48205;SDS011;33995;48.202;16.260;2024-03-06T00:18:25;22.63;;;18.30;;
48205;SDS011;33995;48.202;16.260;2024-03-06T00:20:52;23.80;;;18.27;;
48205;SDS011;33995;48.202;16.260;2024-03-06T00:23:19;22.47;;;18.30;;
48205;SDS011;33995;48.202;16.260;2024-03-06T00:25:46;25.27;;;19.87;;
48205;SDS011;33995;48.202;16.260;2024-03-06T00:28:13;24.00;;;19.23;;
48205;SDS011;33995;48.202;16.260;2024-03-06T00:30:40;24.20;;;19.70;;
48205;SDS011;33995;48.202;16.260;2024-03-06T00:33:08;24.20;;;19.03;;
48205;SDS011;33995;48.202;16.260;2024-03-06T00:35:36;24.70;;;19.70;;
48205;SDS011;33995;48.202;16.260;2024-03-06T00:38:06;24.40;;;18.80;;
48205;SDS011;33995;48.202;16.260;2024-03-06T00:40:36;25.20;;;20.50;;
48205;SDS011;33995;48.202;16.260;2024-03-06T00:43:03;29.87;;;21.80;;
48205;SDS011;33995;48.202;16.260;2024-03-06T00:45:30;27.07;;;20.97;;
48205;SDS011;33995;48.202;16.260;2024-03-06T00:48:00;28.03;;;21.10;;
48205;SDS011;33995;48.202;16.260;2024-03-06T00:50:28;28.23;;;21.87;;
48205;SDS011;33995;48.202;16.260;2024-03-06T00:52:55;28.97;;;21.97;;
48205;SDS011;33995;48.202;16.260;2024-03-06T00:55:22;29.47;;;21.50;;
48205;SDS011;33995;48.202;16.260;2024-03-06T00:57:49;28.53;;;21.70;;
48205;SDS011;33995;48.202;16.260;2024-03-06T01:00:19;28.13;;;21.87;;
48205;SDS011;33995;48.202;16.260;2024-03-06T01:02:47;29.07;;;22.43;;
48205;SDS011;33995;48.202;16.260;2024-03-06T01:05:14;27.90;;;21.43;;
48205;SDS011;33995;48.202;16.260;2024-03-06T01:07:41;28.83;;;21.50;;
48205;SDS011;33995;48.202;16.260;2024-03-06T01:10:09;28.70;;;22.20;;
48205;SDS011;33995;48.202;16.260;2024-03-06T01:12:36;30.17;;;22.97;;
48205;SDS011;33995;48.202;16.260;2024-03-06T01:15:04;28.00;;;20.97;;
48205;SDS011;33995;48.202;16.260;2024-03-06T01:17:31;29.57;;;21.67;;
48205;SDS011;33995;48.202;16.260;2024-03-06T01:19:58;29.53;;;22.50;;
48205;SDS011;33995;48.202;16.260;2024-03-06T01:22:26;27.07;;;21.03;;
48205;SDS011;33995;48.202;16.260;2024-03-06T01:24:53;27.57;;;21.50;;
48205;SDS011;33995;48.202;16.260;2024-03-06T01:27:20;25.53;;;20.53;;
48205;SDS011;33995;48.202;16.260;2024-03-06T01:29:50;24.83;;;19.60;;
48205;SDS011;33995;48.202;16.260;2024-03-06T01:32:17;23.90;;;18.77;;
48205;SDS011;33995;48.202;16.260;2024-03-06T01:34:44;25.37;;;20.03;;
48205;SDS011;33995;48.202;16.260;2024-03-06T01:37:12;26.60;;;20.77;;
48205;SDS011;33995;48.202;16.260;2024-03-06T01:39:39;29.10;;;22.17;;
48205;SDS011;33995;48.202;16.260;2024-03-06T01:42:06;29.97;;;22.00;;
48205;SDS011;33995;48.202;16.260;2024-03-06T01:44:33;29.47;;;21.80;;
48205;SDS011;33995;48.202;16.260;2024-03-06T01:47:00;27.50;;;21.77;;
48205;SDS011;33995;48.202;16.260;2024-03-06T01:49:27;30.20;;;22.13;;
48205;SDS011;33995;48.202;16.260;2024-03-06T01:52:07;31.17;;;22.80;;
48205;SDS011;33995;48.202;16.260;2024-03-06T01:54:36;27.40;;;21.30;;
48205;SDS011;33995;48.202;16.260;2024-03-06T01:57:04;28.43;;;21.80;;
48205;SDS011;33995;48.202;16.260;2024-03-06T01:59:32;27.13;;;21.27;;
48205;SDS011;33995;48.202;16.260;2024-03-06T02:02:03;26.07;;;20.57;;
48205;SDS011;33995;48.202;16.260;2024-03-06T02:04:31;28.27;;;21.43;;
48205;SDS011;33995;48.202;16.260;2024-03-06T02:06:58;28.90;;;21.70;;
48205;SDS011;33995;48.202;16.260;2024-03-06T02:09:32;30.63;;;23.17;;
48205;SDS011;33995;48.202;16.260;2024-03-06T02:11:59;29.50;;;22.23;;
48205;SDS011;33995;48.202;16.260;2024-03-06T02:14:28;29.20;;;22.60;;
48205;SDS011;33995;48.202;16.260;2024-03-06T02:16:56;30.03;;;23.20;;
48205;SDS011;33995;48.202;16.260;2024-03-06T02:19:23;32.27;;;23.40;;
48205;SDS011;33995;48.202;16.260;2024-03-06T02:21:53;30.77;;;23.77;;
48205;SDS011;33995;48.202;16.260;2024-03-06T02:24:21;29.97;;;22.73;;
48205;SDS011;33995;48.202;16.260;2024-03-06T02:26:48;30.53;;;23.30;;
48205;SDS011;33995;48.202;16.260;2024-03-06T02:29:16;31.63;;;22.43;;
48205;SDS011;33995;48.202;16.260;2024-03-06T02:31:50;31.30;;;22.77;;
48205;SDS011;33995;48.202;16.260;2024-03-06T02:34:17;31.67;;;23.23;;
48205;SDS011;33995;48.202;16.260;2024-03-06T02:36:44;33.77;;;23.83;;
48205;SDS011;33995;48.202;16.260;2024-03-06T02:39:14;32.43;;;23.37;;
48205;SDS011;33995;48.202;16.260;2024-03-06T02:41:41;35.17;;;24.60;;
48205;SDS011;33995;48.202;16.260;2024-03-06T02:44:11;32.50;;;23.57;;
48205;SDS011;33995;48.202;16.260;2024-03-06T02:46:39;33.13;;;23.83;;
48205;SDS011;33995;48.202;16.260;2024-03-06T02:49:06;33.13;;;24.50;;
48205;SDS011;33995;48.202;16.260;2024-03-06T02:51:34;33.60;;;25.10;;
48205;SDS011;33995;48.202;16.260;2024-03-06T02:54:01;34.83;;;24.77;;
48205;SDS011;33995;48.202;16.260;2024-03-06T02:56:31;37.03;;;27.23;;
48205;SDS011;33995;48.202;16.260;2024-03-06T02:58:58;35.20;;;25.70;;
48205;SDS011;33995;48.202;16.260;2024-03-06T03:01:28;36.40;;;25.03;;
48205;SDS011;33995;48.202;16.260;2024-03-06T03:03:56;36.53;;;26.20;;
48205;SDS011;33995;48.202;16.260;2024-03-06T03:06:26;36.03;;;26.63;;
48205;SDS011;33995;48.202;16.260;2024-03-06T03:08:55;36.30;;;26.40;;
48205;SDS011;33995;48.202;16.260;2024-03-06T03:11:22;37.67;;;26.37;;
48205;SDS011;33995;48.202;16.260;2024-03-06T03:13:53;38.30;;;27.00;;
48205;SDS011;33995;48.202;16.260;2024-03-06T03:16:20;35.93;;;25.90;;
48205;SDS011;33995;48.202;16.260;2024-03-06T03:18:47;37.63;;;26.03;;
48205;SDS011;33995;48.202;16.260;2024-03-06T03:21:14;36.33;;;26.43;;
48205;SDS011;33995;48.202;16.260;2024-03-06T03:23:41;35.67;;;25.83;;
48205;SDS011;33995;48.202;16.260;2024-03-06T03:26:09;37.43;;;26.27;;
48205;SDS011;33995;48.202;16.260;2024-03-06T03:28:39;39.07;;;27.23;;
48205;SDS011;33995;48.202;16.260;2024-03-06T03:31:07;38.40;;;26.87;;
48205;SDS011;33995;48.202;16.260;2024-03-06T03:33:36;39.10;;;27.90;;
48205;SDS011;33995;48.202;16.260;2024-03-06T03:36:09;39.27;;;27.73;;
48205;SDS011;33995;48.202;16.260;2024-03-06T03:38:38;38.57;;;28.87;;
48205;SDS011;33995;48.202;16.260;2024-03-06T03:41:11;38.70;;;26.97;;
48205;SDS011;33995;48.202;16.260;2024-03-06T03:43:40;43.03;;;28.47;;
48205;SDS011;33995;48.202;16.260;2024-03-06T03:46:08;42.47;;;28.77;;
48205;SDS011;33995;48.202;16.260;2024-03-06T03:48:37;44.50;;;29.47;;
48205;SDS011;33995;48.202;16.260;2024-03-06T03:51:04;39.47;;;28.03;;
48205;SDS011;33995;48.202;16.260;2024-03-06T03:53:34;43.60;;;29.60;;
48205;SDS011;33995;48.202;16.260;2024-03-06T03:56:01;40.70;;;29.20;;
48205;SDS011;33995;48.202;16.260;2024-03-06T03:58:30;44.53;;;29.80;;
48205;SDS011;33995;48.202;16.260;2024-03-06T04:00:57;41.33;;;29.57;;
48205;SDS011;33995;48.202;16.260;2024-03-06T04:03:25;40.30;;;28.67;;
48205;SDS011;33995;48.202;16.260;2024-03-06T04:05:52;43.30;;;29.73;;
48205;SDS011;33995;48.202;16.260;2024-03-06T04:08:22;42.63;;;30.70;;
48205;SDS011;33995;48.202;16.260;2024-03-06T04:10:50;46.37;;;31.67;;
48205;SDS011;33995;48.202;16.260;2024-03-06T04:13:17;44.27;;;31.70;;
48205;SDS011;33995;48.202;16.260;2024-03-06T04:15:46;43.73;;;30.27;;
48205;SDS011;33995;48.202;16.260;2024-03-06T04:18:15;45.40;;;31.47;;
48205;SDS011;33995;48.202;16.260;2024-03-06T04:20:43;44.47;;;31.67;;
48205;SDS011;33995;48.202;16.260;2024-03-06T04:23:10;46.80;;;30.60;;
48205;SDS011;33995;48.202;16.260;2024-03-06T04:25:40;42.70;;;30.77;;
48205;SDS011;33995;48.202;16.260;2024-03-06T04:28:08;45.13;;;31.90;;
48205;SDS011;33995;48.202;16.260;2024-03-06T04:30:35;44.53;;;31.10;;
48205;SDS011;33995;48.202;16.260;2024-03-06T04:33:02;43.20;;;31.33;;
48205;SDS011;33995;48.202;16.260;2024-03-06T04:35:30;44.77;;;31.87;;
48205;SDS011;33995;48.202;16.260;2024-03-06T04:37:57;42.50;;;30.30;;
48205;SDS011;33995;48.202;16.260;2024-03-06T04:40:24;42.00;;;29.60;;
48205;SDS011;33995;48.202;16.260;2024-03-06T04:42:55;41.13;;;29.40;;
48205;SDS011;33995;48.202;16.260;2024-03-06T04:45:22;42.93;;;28.97;;
48205;SDS011;33995;48.202;16.260;2024-03-06T04:47:49;43.37;;;30.07;;
48205;SDS011;33995;48.202;16.260;2024-03-06T04:50:17;40.50;;;28.73;;
48205;SDS011;33995;48.202;16.260;2024-03-06T04:52:45;40.30;;;29.60;;
48205;SDS011;33995;48.202;16.260;2024-03-06T04:55:12;40.23;;;28.73;;
48205;SDS011;33995;48.202;16.260;2024-03-06T04:57:44;41.37;;;28.60;;
48205;SDS011;33995;48.202;16.260;2024-03-06T05:00:13;40.10;;;28.37;;
48205;SDS011;33995;48.202;16.260;2024-03-06T05:02:40;41.17;;;28.77;;
48205;SDS011;33995;48.202;16.260;2024-03-06T05:05:26;38.60;;;28.37;;
48205;SDS011;33995;48.202;16.260;2024-03-06T05:08:11;41.47;;;29.50;;
48205;SDS011;33995;48.202;16.260;2024-03-06T05:11:00;40.20;;;29.13;;
48205;SDS011;33995;48.202;16.260;2024-03-06T05:13:45;40.23;;;28.67;;
48205;SDS011;33995;48.202;16.260;2024-03-06T05:16:29;40.30;;;28.70;;
48205;SDS011;33995;48.202;16.260;2024-03-06T05:19:13;41.23;;;28.87;;
48205;SDS011;33995;48.202;16.260;2024-03-06T05:21:58;42.60;;;30.37;;
48205;SDS011;33995;48.202;16.260;2024-03-06T05:24:43;41.13;;;29.60;;
48205;SDS011;33995;48.202;16.260;2024-03-06T05:27:27;40.37;;;29.50;;
48205;SDS011;33995;48.202;16.260;2024-03-06T05:30:12;40.40;;;28.60;;
48205;SDS011;33995;48.202;16.260;2024-03-06T05:32:57;40.57;;;29.20;;
48205;SDS011;33995;48.202;16.260;2024-03-06T05:35:41;40.27;;;28.40;;
48205;SDS011;33995;48.202;16.260;2024-03-06T05:38:29;42.97;;;29.53;;
48205;SDS011;33995;48.202;16.260;2024-03-06T05:41:14;39.30;;;28.87;;
48205;SDS011;33995;48.202;16.260;2024-03-06T05:43:59;38.93;;;28.47;;
48205;SDS011;33995;48.202;16.260;2024-03-06T05:46:44;39.83;;;28.70;;
48205;SDS011;33995;48.202;16.260;2024-03-06T05:49:32;39.43;;;28.10;;
48205;SDS011;33995;48.202;16.260;2024-03-06T05:52:16;39.70;;;27.50;;
48205;SDS011;33995;48.202;16.260;2024-03-06T05:55:01;40.47;;;28.20;;
48205;SDS011;33995;48.202;16.260;2024-03-06T05:57:45;37.73;;;27.43;;
48205;SDS011;33995;48.202;16.260;2024-03-06T06:00:30;37.13;;;27.60;;
48205;SDS011;33995;48.202;16.260;2024-03-06T06:02:57;37.80;;;28.50;;
48205;SDS011;33995;48.202;16.260;2024-03-06T06:05:25;37.37;;;27.37;;
48205;SDS011;33995;48.202;16.260;2024-03-06T06:07:53;38.47;;;28.07;;
48205;SDS011;33995;48.202;16.260;2024-03-06T06:10:20;39.20;;;26.57;;
48205;SDS011;33995;48.202;16.260;2024-03-06T06:12:48;37.37;;;26.73;;
48205;SDS011;33995;48.202;16.260;2024-03-06T06:15:16;37.70;;;27.30;;
48205;SDS011;33995;48.202;16.260;2024-03-06T06:17:43;37.57;;;26.37;;
48205;SDS011;33995;48.202;16.260;2024-03-06T06:20:13;34.60;;;25.50;;
48205;SDS011;33995;48.202;16.260;2024-03-06T06:22:45;34.47;;;25.30;;
48205;SDS011;33995;48.202;16.260;2024-03-06T06:25:12;36.53;;;25.07;;
48205;SDS011;33995;48.202;16.260;2024-03-06T06:27:39;33.80;;;25.03;;
48205;SDS011;33995;48.202;16.260;2024-03-06T06:30:07;33.83;;;24.33;;
48205;SDS011;33995;48.202;16.260;2024-03-06T06:32:39;35.20;;;25.03;;
48205;SDS011;33995;48.202;16.260;2024-03-06T06:35:08;33.03;;;24.93;;
48205;SDS011;33995;48.202;16.260;2024-03-06T06:37:37;30.47;;;23.30;;
48205;SDS011;33995;48.202;16.260;2024-03-06T06:40:06;31.70;;;23.70;;
48205;SDS011;33995;48.202;16.260;2024-03-06T06:42:34;32.80;;;24.00;;
48205;SDS011;33995;48.202;16.260;2024-03-06T06:45:05;31.27;;;22.83;;
48205;SDS011;33995;48.202;16.260;2024-03-06T06:47:33;29.43;;;22.83;;
48205;SDS011;33995;48.202;16.260;2024-03-06T06:50:01;29.40;;;22.90;;
48205;SDS011;33995;48.202;16.260;2024-03-06T06:52:32;29.27;;;21.67;;
48205;SDS011;33995;48.202;16.260;2024-03-06T06:55:00;27.77;;;21.50;;
48205;SDS011;33995;48.202;16.260;2024-03-06T06:57:32;28.17;;;21.10;;
48205;SDS011;33995;48.202;16.260;2024-03-06T07:00:00;27.73;;;20.80;;
48205;SDS011;33995;48.202;16.260;2024-03-06T07:02:28;26.03;;;20.30;;
48205;SDS011;33995;48.202;16.260;2024-03-06T07:04:55;23.90;;;18.77;;
48205;SDS011;33995;48.202;16.260;2024-03-06T07:07:23;23.97;;;19.03;;
48205;SDS011;33995;48.202;16.260;2024-03-06T07:09:51;25.50;;;20.03;;
48205;SDS011;33995;48.202;16.260;2024-03-06T07:12:22;25.30;;;19.23;;
48205;SDS011;33995;48.202;16.260;2024-03-06T07:14:50;23.93;;;19.27;;
48205;SDS011;33995;48.202;16.260;2024-03-06T07:17:18;31.23;;;19.00;;
48205;SDS011;33995;48.202;16.260;2024-03-06T07:19:45;22.97;;;18.57;;
48205;SDS011;33995;48.202;16.260;2024-03-06T07:22:14;23.43;;;19.07;;
48205;SDS011;33995;48.202;16.260;2024-03-06T07:24:42;22.23;;;18.20;;
48205;SDS011;33995;48.202;16.260;2024-03-06T07:27:09;25.63;;;18.27;;
48205;SDS011;33995;48.202;16.260;2024-03-06T07:29:36;22.13;;;18.43;;
48205;SDS011;33995;48.202;16.260;2024-03-06T07:32:04;23.50;;;19.50;;
48205;SDS011;33995;48.202;16.260;2024-03-06T07:34:34;23.17;;;19.40;;
48205;SDS011;33995;48.202;16.260;2024-03-06T07:37:01;24.17;;;18.57;;
48205;SDS011;33995;48.202;16.260;2024-03-06T07:39:31;23.47;;;18.73;;
48205;SDS011;33995;48.202;16.260;2024-03-06T07:41:59;22.27;;;18.53;;
48205;SDS011;33995;48.202;16.260;2024-03-06T07:44:26;22.90;;;18.23;;
48205;SDS011;33995;48.202;16.260;2024-03-06T07:46:53;21.90;;;17.73;;
48205;SDS011;33995;48.202;16.260;2024-03-06T07:49:23;22.40;;;18.37;;
48205;SDS011;33995;48.202;16.260;2024-03-06T07:51:50;22.37;;;18.30;;
48205;SDS011;33995;48.202;16.260;2024-03-06T07:54:17;21.60;;;18.63;;
48205;SDS011;33995;48.202;16.260;2024-03-06T07:56:45;22.30;;;19.20;;
48205;SDS011;33995;48.202;16.260;2024-03-06T07:59:12;21.63;;;18.07;;
48205;SDS011;33995;48.202;16.260;2024-03-06T08:01:40;21.80;;;18.07;;
48205;SDS011;33995;48.202;16.260;2024-03-06T08:04:10;21.47;;;18.00;;
48205;SDS011;33995;48.202;16.260;2024-03-06T08:06:37;20.87;;;18.07;;
48205;SDS011;33995;48.202;16.260;2024-03-06T08:09:07;20.20;;;17.10;;
48205;SDS011;33995;48.202;16.260;2024-03-06T08:11:34;21.07;;;17.47;;
48205;SDS011;33995;48.202;16.260;2024-03-06T08:14:08;19.27;;;16.90;;
48205;SDS011;33995;48.202;16.260;2024-03-06T08:16:35;21.80;;;18.13;;
48205;SDS011;33995;48.202;16.260;2024-03-06T08:19:03;20.03;;;17.57;;
48205;SDS011;33995;48.202;16.260;2024-03-06T08:21:30;19.80;;;17.30;;
48205;SDS011;33995;48.202;16.260;2024-03-06T08:23:57;19.03;;;16.90;;
48205;SDS011;33995;48.202;16.260;2024-03-06T08:26:26;22.87;;;17.93;;
48205;SDS011;33995;48.202;16.260;2024-03-06T08:28:53;20.03;;;17.60;;
48205;SDS011;33995;48.202;16.260;2024-03-06T08:31:21;20.00;;;17.40;;
48205;SDS011;33995;48.202;16.260;2024-03-06T08:33:52;20.17;;;16.73;;
48205;SDS011;33995;48.202;16.260;2024-03-06T08:36:20;20.40;;;18.20;;
48205;SDS011;33995;48.202;16.260;2024-03-06T08:38:48;20.33;;;16.93;;
48205;SDS011;33995;48.202;16.260;2024-03-06T08:41:15;21.03;;;16.93;;
48205;SDS011;33995;48.202;16.260;2024-03-06T08:43:42;19.10;;;16.97;;
48205;SDS011;33995;48.202;16.260;2024-03-06T08:46:10;18.37;;;16.37;;
48205;SDS011;33995;48.202;16.260;2024-03-06T08:48:37;19.37;;;17.13;;
48205;SDS011;33995;48.202;16.260;2024-03-06T08:51:05;19.07;;;16.20;;
48205;SDS011;33995;48.202;16.260;2024-03-06T08:53:37;18.67;;;16.13;;
48205;SDS011;33995;48.202;16.260;2024-03-06T08:56:05;18.07;;;16.17;;
48205;SDS011;33995;48.202;16.260;2024-03-06T08:58:33;18.70;;;16.33;;
48205;SDS011;33995;48.202;16.260;2024-03-06T09:01:03;18.47;;;16.03;;
48205;SDS011;33995;48.202;16.260;2024-03-06T09:03:31;18.50;;;15.70;;
48205;SDS011;33995;48.202;16.260;2024-03-06T09:05:58;17.77;;;15.87;;
48205;SDS011;33995;48.202;16.260;2024-03-06T09:08:26;18.83;;;15.93;;
48205;SDS011;33995;48.202;16.260;2024-03-06T09:10:53;20.43;;;16.43;;
48205;SDS011;33995;48.202;16.260;2024-03-06T09:13:25;18.13;;;16.23;;
48205;SDS011;33995;48.202;16.260;2024-03-06T09:15:53;18.77;;;16.67;;
48205;SDS011;33995;48.202;16.260;2024-03-06T09:18:20;18.40;;;16.33;;
48205;SDS011;33995;48.202;16.260;2024-03-06T09:20:47;20.77;;;17.17;;
48205;SDS011;33995;48.202;16.260;2024-03-06T09:23:21;20.00;;;17.80;;
48205;SDS011;33995;48.202;16.260;2024-03-06T09:25:49;21.87;;;17.60;;
48205;SDS011;33995;48.202;16.260;2024-03-06T09:28:16;21.93;;;18.87;;
48205;SDS011;33995;48.202;16.260;2024-03-06T09:30:43;21.00;;;17.33;;
48205;SDS011;33995;48.202;16.260;2024-03-06T09:33:11;19.43;;;17.30;;
48205;SDS011;33995;48.202;16.260;2024-03-06T09:35:38;19.47;;;17.37;;
48205;SDS011;33995;48.202;16.260;2024-03-06T09:38:12;20.47;;;16.73;;
48205;SDS011;33995;48.202;16.260;2024-03-06T09:40:45;18.93;;;16.90;;
48205;SDS011;33995;48.202;16.260;2024-03-06T09:43:13;21.20;;;17.93;;
48205;SDS011;33995;48.202;16.260;2024-03-06T09:45:47;20.07;;;16.67;;
48205;SDS011;33995;48.202;16.260;2024-03-06T09:48:18;18.53;;;16.53;;
48205;SDS011;33995;48.202;16.260;2024-03-06T09:50:48;19.90;;;16.70;;
48205;SDS011;33995;48.202;16.260;2024-03-06T09:53:19;18.77;;;16.10;;
48205;SDS011;33995;48.202;16.260;2024-03-06T09:55:49;17.53;;;15.37;;
48205;SDS011;33995;48.202;16.260;2024-03-06T09:58:16;17.23;;;15.33;;
48205;SDS011;33995;48.202;16.260;2024-03-06T10:00:44;17.63;;;15.73;;
48205;SDS011;33995;48.202;16.260;2024-03-06T10:03:13;19.07;;;15.50;;
48205;SDS011;33995;48.202;16.260;2024-03-06T10:05:40;17.17;;;14.80;;
48205;SDS011;33995;48.202;16.260;2024-03-06T10:08:10;19.83;;;16.50;;
48205;SDS011;33995;48.202;16.260;2024-03-06T10:10:37;16.67;;;14.87;;
48205;SDS011;33995;48.202;16.260;2024-03-06T10:13:04;17.60;;;15.70;;
48205;SDS011;33995;48.202;16.260;2024-03-06T10:15:34;18.10;;;15.17;;
48205;SDS011;33995;48.202;16.260;2024-03-06T10:18:15;16.90;;;15.10;;
48205;SDS011;33995;48.202;16.260;2024-03-06T10:20:45;17.80;;;15.63;;
48205;SDS011;33995;48.202;16.260;2024-03-06T10:23:12;17.37;;;15.27;;
48205;SDS011;33995;48.202;16.260;2024-03-06T10:25:39;17.87;;;14.80;;
48205;SDS011;33995;48.202;16.260;2024-03-06T10:28:10;15.43;;;13.83;;
48205;SDS011;33995;48.202;16.260;2024-03-06T10:30:39;16.57;;;13.80;;
48205;SDS011;33995;48.202;16.260;2024-03-06T10:33:12;14.83;;;13.23;;
48205;SDS011;33995;48.202;16.260;2024-03-06T10:35:40;16.47;;;14.30;;
48205;SDS011;33995;48.202;16.260;2024-03-06T10:38:10;15.27;;;13.67;;
48205;SDS011;33995;48.202;16.260;2024-03-06T10:40:39;14.27;;;12.77;;
48205;SDS011;33995;48.202;16.260;2024-03-06T10:43:08;15.97;;;13.20;;
48205;SDS011;33995;48.202;16.260;2024-03-06T10:48:18;13.53;;;12.13;;
48205;SDS011;33995;48.202;16.260;2024-03-06T10:50:47;14.47;;;12.97;;
48205;SDS011;33995;48.202;16.260;2024-03-06T10:53:17;14.67;;;12.77;;
48205;SDS011;33995;48.202;16.260;2024-03-06T10:55:49;14.00;;;12.50;;
48205;SDS011;33995;48.202;16.260;2024-03-06T10:58:17;13.50;;;12.10;;
48205;SDS011;33995;48.202;16.260;2024-03-06T11:00:47;13.90;;;12.50;;
48205;SDS011;33995;48.202;16.260;2024-03-06T11:03:15;15.17;;;13.57;;
48205;SDS011;33995;48.202;16.260;2024-03-06T11:05:46;14.57;;;12.97;;
48205;SDS011;33995;48.202;16.260;2024-03-06T11:08:19;14.10;;;12.60;;
48205;SDS011;33995;48.202;16.260;2024-03-06T11:10:47;13.90;;;12.37;;
48205;SDS011;33995;48.202;16.260;2024-03-06T11:15:52;13.87;;;12.37;;
48205;SDS011;33995;48.202;16.260;2024-03-06T11:20:59;14.47;;;12.97;;
48205;SDS011;33995;48.202;16.260;2024-03-06T11:23:30;14.67;;;13.23;;
48205;SDS011;33995;48.202;16.260;2024-03-06T11:26:02;15.03;;;13.53;;
48205;SDS011;33995;48.202;16.260;2024-03-06T11:28:36;14.27;;;12.83;;
48205;SDS011;33995;48.202;16.260;2024-03-06T11:31:08;14.37;;;12.83;;
48205;SDS011;33995;48.202;16.260;2024-03-06T11:33:45;13.47;;;12.07;;
48205;SDS011;33995;48.202;16.260;2024-03-06T11:41:23;15.50;;;13.90;;
48205;SDS011;33995;48.202;16.260;2024-03-06T11:43:52;15.07;;;13.37;;
48205;SDS011;33995;48.202;16.260;2024-03-06T11:46:22;14.93;;;13.33;;
48205;SDS011;33995;48.202;16.260;2024-03-06T11:49:15;15.80;;;14.17;;
48205;SDS011;33995;48.202;16.260;2024-03-06T11:51:44;15.67;;;13.80;;
48205;SDS011;33995;48.202;16.260;2024-03-06T11:54:12;15.50;;;13.70;;
48205;SDS011;33995;48.202;16.260;2024-03-06T11:56:45;15.00;;;13.50;;
48205;SDS011;33995;48.202;16.260;2024-03-06T11:59:14;16.23;;;13.73;;
48205;SDS011;33995;48.202;16.260;2024-03-06T12:01:41;15.60;;;13.97;;
48205;SDS011;33995;48.202;16.260;2024-03-06T12:04:11;16.47;;;14.73;;
48205;SDS011;33995;48.202;16.260;2024-03-06T12:06:40;16.83;;;15.03;;
48205;SDS011;33995;48.202;16.260;2024-03-06T12:09:07;16.63;;;14.23;;
48205;SDS011;33995;48.202;16.260;2024-03-06T12:11:37;16.53;;;14.77;;
48205;SDS011;33995;48.202;16.260;2024-03-06T12:14:05;19.60;;;16.43;;
48205;SDS011;33995;48.202;16.260;2024-03-06T12:16:32;16.53;;;14.83;;
48205;SDS011;33995;48.202;16.260;2024-03-06T12:18:59;17.30;;;15.50;;
48205;SDS011;33995;48.202;16.260;2024-03-06T12:21:31;16.93;;;15.13;;
48205;SDS011;33995;48.202;16.260;2024-03-06T12:24:02;17.77;;;15.87;;
48205;SDS011;33995;48.202;16.260;2024-03-06T12:26:34;17.00;;;15.30;;
48205;SDS011;33995;48.202;16.260;2024-03-06T12:29:07;17.93;;;16.03;;
48205;SDS011;33995;48.202;16.260;2024-03-06T12:31:36;18.17;;;16.27;;
48205;SDS011;33995;48.202;16.260;2024-03-06T12:34:04;18.47;;;16.53;;
48205;SDS011;33995;48.202;16.260;2024-03-06T12:36:32;19.47;;;17.40;;
48205;SDS011;33995;48.202;16.260;2024-03-06T12:39:03;18.97;;;16.70;;
48205;SDS011;33995;48.202;16.260;2024-03-06T12:41:39;19.17;;;17.10;;
48205;SDS011;33995;48.202;16.260;2024-03-06T12:44:07;20.10;;;17.13;;
48205;SDS011;33995;48.202;16.260;2024-03-06T12:46:34;17.97;;;15.93;;
48205;SDS011;33995;48.202;16.260;2024-03-06T12:49:01;19.33;;;16.40;;
48205;SDS011;33995;48.202;16.260;2024-03-06T12:51:32;18.60;;;16.00;;
48205;SDS011;33995;48.202;16.260;2024-03-06T12:54:00;18.10;;;15.83;;
48205;SDS011;33995;48.202;16.260;2024-03-06T12:56:29;17.73;;;15.83;;
48205;SDS011;33995;48.202;16.260;2024-03-06T12:58:56;18.17;;;16.27;;
48205;SDS011;33995;48.202;16.260;2024-03-06T13:01:23;17.60;;;15.57;;
48205;SDS011;33995;48.202;16.260;2024-03-06T13:03:50;17.80;;;15.43;;
48205;SDS011;33995;48.202;16.260;2024-03-06T13:06:17;19.10;;;16.07;;
48205;SDS011;33995;48.202;16.260;2024-03-06T13:08:45;19.33;;;16.63;;
48205;SDS011;33995;48.202;16.260;2024-03-06T13:11:12;20.20;;;16.70;;
48205;SDS011;33995;48.202;16.260;2024-03-06T13:13:42;18.60;;;16.60;;
48205;SDS011;33995;48.202;16.260;2024-03-06T13:16:09;19.97;;;16.67;;
48205;SDS011;33995;48.202;16.260;2024-03-06T13:18:39;20.27;;;16.57;;
48205;SDS011;33995;48.202;16.260;2024-03-06T13:21:07;18.73;;;16.83;;
48205;SDS011;33995;48.202;16.260;2024-03-06T13:23:34;20.73;;;17.37;;
48205;SDS011;33995;48.202;16.260;2024-03-06T13:26:02;21.03;;;17.57;;
48205;SDS011;33995;48.202;16.260;2024-03-06T13:28:29;20.23;;;17.20;;
48205;SDS011;33995;48.202;16.260;2024-03-06T13:30:58;20.00;;;16.90;;
48205;SDS011;33995;48.202;16.260;2024-03-06T13:33:25;18.00;;;15.77;;
48205;SDS011;33995;48.202;16.260;2024-03-06T13:35:57;18.93;;;16.00;;
48205;SDS011;33995;48.202;16.260;2024-03-06T13:38:27;19.53;;;16.50;;
48205;SDS011;33995;48.202;16.260;2024-03-06T13:40:54;20.17;;;16.00;;
48205;SDS011;33995;48.202;16.260;2024-03-06T13:43:23;20.27;;;16.73;;
48205;SDS011;33995;48.202;16.260;2024-03-06T13:45:50;19.77;;;16.13;;
48205;SDS011;33995;48.202;16.260;2024-03-06T13:48:19;20.03;;;16.27;;
48205;SDS011;33995;48.202;16.260;2024-03-06T13:50:47;18.60;;;15.37;;
48205;SDS011;33995;48.202;16.260;2024-03-06T13:53:17;19.53;;;15.40;;
48205;SDS011;33995;48.202;16.260;2024-03-06T13:55:44;19.43;;;14.73;;
48205;SDS011;33995;48.202;16.260;2024-03-06T13:58:11;19.37;;;16.03;;
48205;SDS011;33995;48.202;16.260;2024-03-06T14:00:38;18.50;;;15.27;;
48205;SDS011;33995;48.202;16.260;2024-03-06T14:03:07;17.33;;;14.57;;
48205;SDS011;33995;48.202;16.260;2024-03-06T14:05:36;17.37;;;14.40;;
48205;SDS011;33995;48.202;16.260;2024-03-06T14:08:04;17.43;;;14.80;;
48205;SDS011;33995;48.202;16.260;2024-03-06T14:10:39;18.13;;;15.37;;
48205;SDS011;33995;48.202;16.260;2024-03-06T14:13:07;17.17;;;14.63;;
48205;SDS011;33995;48.202;16.260;2024-03-06T14:15:38;17.03;;;15.00;;
48205;SDS011;33995;48.202;16.260;2024-03-06T14:18:05;16.13;;;14.43;;
48205;SDS011;33995;48.202;16.260;2024-03-06T14:20:33;17.53;;;15.37;;
48205;SDS011;33995;48.202;16.260;2024-03-06T14:23:00;16.63;;;14.03;;
48205;SDS011;33995;48.202;16.260;2024-03-06T14:25:30;17.17;;;14.90;;
48205;SDS011;33995;48.202;16.260;2024-03-06T14:28:01;17.23;;;14.87;;
48205;SDS011;33995;48.202;16.260;2024-03-06T14:30:29;15.87;;;14.17;;
48205;SDS011;33995;48.202;16.260;2024-03-06T14:32:56;18.30;;;15.73;;
48205;SDS011;33995;48.202;16.260;2024-03-06T14:35:23;17.17;;;14.67;;